sensor_id;sensor_type;location;lat;lon;timestamp;temperature;humidity
80176;DHT22;69501;42.124;24.722;2023-07-24T00:00:30;30.70;27.50
80176;DHT22;69501;42.124;24.722;2023-07-24T00:02:55;30.70;27.70
80176;DHT22;69501;42.124;24.722;2023-07-24T00:05:21;30.70;28.00
80176;DHT22;69501;42.124;24.722;2023-07-24T00:07:47;30.70;28.20
80176;DHT22;69501;42.124;24.722;2023-07-24T00:10:13;30.60;28.20
80176;DHT22;69501;42.124;24.722;2023-07-24T00:12:38;30.70;28.50
80176;DHT22;69501;42.124;24.722;2023-07-24T00:15:04;30.60;28.60
80176;DHT22;69501;42.124;24.722;2023-07-24T00:17:30;30.50;28.40
80176;DHT22;69501;42.124;24.722;2023-07-24T00:19:56;30.50;28.40
80176;DHT22;69501;42.124;24.722;2023-07-24T00:22:21;30.50;28.40
80176;DHT22;69501;42.124;24.722;2023-07-24T00:24:47;30.50;28.40
80176;DHT22;69501;42.124;24.722;2023-07-24T00:27:13;30.40;28.80
80176;DHT22;69501;42.124;24.722;2023-07-24T00:29:39;30.40;29.30
80176;DHT22;69501;42.124;24.722;2023-07-24T00:32:05;30.40;29.50
80176;DHT22;69501;42.124;24.722;2023-07-24T00:34:31;30.30;29.90
80176;DHT22;69501;42.124;24.722;2023-07-24T00:36:56;30.30;30.10
80176;DHT22;69501;42.124;24.722;2023-07-24T00:39:22;30.20;30.90
80176;DHT22;69501;42.124;24.722;2023-07-24T00:41:48;30.20;31.80
80176;DHT22;69501;42.124;24.722;2023-07-24T00:44:13;30.20;32.90
80176;DHT22;69501;42.124;24.722;2023-07-24T00:46:39;30.10;34.40
80176;DHT22;69501;42.124;24.722;2023-07-24T00:49:06;30.10;35.40
80176;DHT22;69501;42.124;24.722;2023-07-24T00:51:33;30.10;35.90
80176;DHT22;69501;42.124;24.722;2023-07-24T00:54:01;30.00;36.40
80176;DHT22;69501;42.124;24.722;2023-07-24T00:56:27;29.90;36.80
80176;DHT22;69501;42.124;24.722;2023-07-24T00:58:54;29.90;36.70
80176;DHT22;69501;42.124;24.722;2023-07-24T01:01:23;29.90;36.60
80176;DHT22;69501;42.124;24.722;2023-07-24T01:03:50;29.90;36.40
80176;DHT22;69501;42.124;24.722;2023-07-24T01:06:16;29.80;36.40
80176;DHT22;69501;42.124;24.722;2023-07-24T01:08:42;29.80;36.50
80176;DHT22;69501;42.124;24.722;2023-07-24T01:11:23;29.70;36.70
80176;DHT22;69501;42.124;24.722;2023-07-24T01:16:53;29.70;38.10
80176;DHT22;69501;42.124;24.722;2023-07-24T01:19:40;29.70;39.00
80176;DHT22;69501;42.124;24.722;2023-07-24T01:22:38;29.60;39.70
80176;DHT22;69501;42.124;24.722;2023-07-24T01:27:32;29.50;41.00
80176;DHT22;69501;42.124;24.722;2023-07-24T01:29:57;29.50;42.80
80176;DHT22;69501;42.124;24.722;2023-07-24T01:32:23;29.50;42.10
80176;DHT22;69501;42.124;24.722;2023-07-24T01:34:51;29.40;42.50
80176;DHT22;69501;42.124;24.722;2023-07-24T01:37:19;29.40;44.10
80176;DHT22;69501;42.124;24.722;2023-07-24T01:39:46;29.30;43.10
80176;DHT22;69501;42.124;24.722;2023-07-24T01:42:13;29.30;43.20
80176;DHT22;69501;42.124;24.722;2023-07-24T01:44:39;29.30;43.50
80176;DHT22;69501;42.124;24.722;2023-07-24T01:47:05;29.20;43.70
80176;DHT22;69501;42.124;24.722;2023-07-24T01:49:31;29.20;44.00
80176;DHT22;69501;42.124;24.722;2023-07-24T01:51:56;29.20;44.20
80176;DHT22;69501;42.124;24.722;2023-07-24T01:54:23;29.10;44.40
80176;DHT22;69501;42.124;24.722;2023-07-24T01:56:48;29.10;44.60
80176;DHT22;69501;42.124;24.722;2023-07-24T01:59:14;29.10;44.60
80176;DHT22;69501;42.124;24.722;2023-07-24T02:01:40;29.10;44.60
80176;DHT22;69501;42.124;24.722;2023-07-24T02:04:06;29.00;44.70
80176;DHT22;69501;42.124;24.722;2023-07-24T02:06:32;29.00;44.90
80176;DHT22;69501;42.124;24.722;2023-07-24T02:08:57;28.90;45.00
80176;DHT22;69501;42.124;24.722;2023-07-24T02:11:23;28.90;45.30
80176;DHT22;69501;42.124;24.722;2023-07-24T02:13:48;28.80;45.50
80176;DHT22;69501;42.124;24.722;2023-07-24T02:16:17;28.80;45.60
80176;DHT22;69501;42.124;24.722;2023-07-24T02:18:43;28.80;45.90
80176;DHT22;69501;42.124;24.722;2023-07-24T02:21:09;28.80;46.30
80176;DHT22;69501;42.124;24.722;2023-07-24T02:23:35;28.80;46.50
80176;DHT22;69501;42.124;24.722;2023-07-24T02:26:01;28.70;46.60
80176;DHT22;69501;42.124;24.722;2023-07-24T02:28:27;28.70;46.80
80176;DHT22;69501;42.124;24.722;2023-07-24T02:30:53;28.70;47.00
80176;DHT22;69501;42.124;24.722;2023-07-24T02:33:22;28.70;47.60
80176;DHT22;69501;42.124;24.722;2023-07-24T02:35:50;28.70;47.80
80176;DHT22;69501;42.124;24.722;2023-07-24T02:38:16;28.60;47.60
80176;DHT22;69501;42.124;24.722;2023-07-24T02:40:43;28.60;47.50
80176;DHT22;69501;42.124;24.722;2023-07-24T02:43:09;28.60;47.50
80176;DHT22;69501;42.124;24.722;2023-07-24T02:45:35;28.50;47.50
80176;DHT22;69501;42.124;24.722;2023-07-24T02:48:00;28.40;47.40
80176;DHT22;69501;42.124;24.722;2023-07-24T02:50:27;28.50;47.60
80176;DHT22;69501;42.124;24.722;2023-07-24T02:55:34;28.50;47.60
80176;DHT22;69501;42.124;24.722;2023-07-24T02:58:00;28.40;48.00
80176;DHT22;69501;42.124;24.722;2023-07-24T03:00:25;28.40;48.30
80176;DHT22;69501;42.124;24.722;2023-07-24T03:02:52;28.30;48.50
80176;DHT22;69501;42.124;24.722;2023-07-24T03:05:18;28.30;48.50
80176;DHT22;69501;42.124;24.722;2023-07-24T03:07:43;28.30;48.70
80176;DHT22;69501;42.124;24.722;2023-07-24T03:10:09;28.30;48.80
80176;DHT22;69501;42.124;24.722;2023-07-24T03:12:35;28.20;48.90
80176;DHT22;69501;42.124;24.722;2023-07-24T03:15:01;28.30;49.00
80176;DHT22;69501;42.124;24.722;2023-07-24T03:17:26;28.30;48.90
80176;DHT22;69501;42.124;24.722;2023-07-24T03:19:54;28.30;49.00
80176;DHT22;69501;42.124;24.722;2023-07-24T03:22:20;28.20;48.90
80176;DHT22;69501;42.124;24.722;2023-07-24T03:24:45;28.20;49.00
80176;DHT22;69501;42.124;24.722;2023-07-24T03:27:11;28.20;49.00
80176;DHT22;69501;42.124;24.722;2023-07-24T03:29:37;28.20;49.00
80176;DHT22;69501;42.124;24.722;2023-07-24T03:32:03;28.20;48.90
80176;DHT22;69501;42.124;24.722;2023-07-24T03:34:29;28.20;48.90
80176;DHT22;69501;42.124;24.722;2023-07-24T03:36:54;28.30;48.90
80176;DHT22;69501;42.124;24.722;2023-07-24T03:39:20;28.20;48.80
80176;DHT22;69501;42.124;24.722;2023-07-24T03:41:46;28.20;48.70
80176;DHT22;69501;42.124;24.722;2023-07-24T03:44:11;28.20;48.60
80176;DHT22;69501;42.124;24.722;2023-07-24T03:46:37;28.30;48.70
80176;DHT22;69501;42.124;24.722;2023-07-24T03:49:02;28.30;48.50
80176;DHT22;69501;42.124;24.722;2023-07-24T03:51:28;28.30;48.40
80176;DHT22;69501;42.124;24.722;2023-07-24T03:53:54;28.30;48.20
80176;DHT22;69501;42.124;24.722;2023-07-24T03:56:19;28.40;48.00
80176;DHT22;69501;42.124;24.722;2023-07-24T03:58:45;28.40;47.70
80176;DHT22;69501;42.124;24.722;2023-07-24T04:01:11;28.40;47.50
80176;DHT22;69501;42.124;24.722;2023-07-24T04:03:37;28.40;47.50
80176;DHT22;69501;42.124;24.722;2023-07-24T04:06:03;28.40;47.40
80176;DHT22;69501;42.124;24.722;2023-07-24T04:08:28;28.40;47.30
80176;DHT22;69501;42.124;24.722;2023-07-24T04:10:54;28.50;47.20
80176;DHT22;69501;42.124;24.722;2023-07-24T04:13:22;28.50;47.20
80176;DHT22;69501;42.124;24.722;2023-07-24T04:15:47;28.60;47.20
80176;DHT22;69501;42.124;24.722;2023-07-24T04:18:13;28.60;47.10
80176;DHT22;69501;42.124;24.722;2023-07-24T04:20:39;28.50;47.00
80176;DHT22;69501;42.124;24.722;2023-07-24T04:23:11;28.60;47.00
80176;DHT22;69501;42.124;24.722;2023-07-24T04:25:37;28.60;46.90
80176;DHT22;69501;42.124;24.722;2023-07-24T04:28:03;28.60;46.90
80176;DHT22;69501;42.124;24.722;2023-07-24T04:30:28;28.60;46.80
80176;DHT22;69501;42.124;24.722;2023-07-24T04:32:54;28.60;45.60
80176;DHT22;69501;42.124;24.722;2023-07-24T04:35:22;28.60;44.30
80176;DHT22;69501;42.124;24.722;2023-07-24T04:37:48;28.60;43.40
80176;DHT22;69501;42.124;24.722;2023-07-24T04:40:14;28.50;43.00
80176;DHT22;69501;42.124;24.722;2023-07-24T04:42:39;28.50;42.80
80176;DHT22;69501;42.124;24.722;2023-07-24T04:45:08;28.40;42.90
80176;DHT22;69501;42.124;24.722;2023-07-24T04:47:34;28.20;43.20
80176;DHT22;69501;42.124;24.722;2023-07-24T04:50:02;28.10;43.60
80176;DHT22;69501;42.124;24.722;2023-07-24T04:52:28;28.00;43.90
80176;DHT22;69501;42.124;24.722;2023-07-24T04:54:53;28.00;43.90
80176;DHT22;69501;42.124;24.722;2023-07-24T04:57:19;28.10;44.20
80176;DHT22;69501;42.124;24.722;2023-07-24T04:59:44;28.10;44.30
80176;DHT22;69501;42.124;24.722;2023-07-24T05:02:10;28.10;44.20
80176;DHT22;69501;42.124;24.722;2023-07-24T05:04:36;28.10;44.30
80176;DHT22;69501;42.124;24.722;2023-07-24T05:07:01;28.20;44.40
80176;DHT22;69501;42.124;24.722;2023-07-24T05:09:27;28.20;44.40
80176;DHT22;69501;42.124;24.722;2023-07-24T05:11:53;28.20;44.50
80176;DHT22;69501;42.124;24.722;2023-07-24T05:14:18;28.30;44.60
80176;DHT22;69501;42.124;24.722;2023-07-24T05:16:44;28.20;44.50
80176;DHT22;69501;42.124;24.722;2023-07-24T05:19:10;28.30;44.50
80176;DHT22;69501;42.124;24.722;2023-07-24T05:21:35;28.20;44.50
80176;DHT22;69501;42.124;24.722;2023-07-24T05:24:01;28.30;44.70
80176;DHT22;69501;42.124;24.722;2023-07-24T05:26:27;28.40;44.80
80176;DHT22;69501;42.124;24.722;2023-07-24T05:28:52;28.40;45.00
80176;DHT22;69501;42.124;24.722;2023-07-24T05:31:18;28.40;45.10
80176;DHT22;69501;42.124;24.722;2023-07-24T05:33:44;28.40;45.00
80176;DHT22;69501;42.124;24.722;2023-07-24T05:36:10;28.40;44.90
80176;DHT22;69501;42.124;24.722;2023-07-24T05:38:36;28.40;45.10
80176;DHT22;69501;42.124;24.722;2023-07-24T05:41:03;28.50;45.10
80176;DHT22;69501;42.124;24.722;2023-07-24T05:43:29;28.50;45.10
80176;DHT22;69501;42.124;24.722;2023-07-24T05:45:56;28.50;45.10
80176;DHT22;69501;42.124;24.722;2023-07-24T05:48:23;28.50;45.00
80176;DHT22;69501;42.124;24.722;2023-07-24T05:50:49;28.60;45.00
80176;DHT22;69501;42.124;24.722;2023-07-24T05:53:15;28.60;45.10
80176;DHT22;69501;42.124;24.722;2023-07-24T05:55:41;28.60;45.20
80176;DHT22;69501;42.124;24.722;2023-07-24T05:58:08;28.60;45.00
80176;DHT22;69501;42.124;24.722;2023-07-24T06:00:34;28.70;45.00
80176;DHT22;69501;42.124;24.722;2023-07-24T06:03:00;28.70;44.80
80176;DHT22;69501;42.124;24.722;2023-07-24T06:05:26;28.70;44.30
80176;DHT22;69501;42.124;24.722;2023-07-24T06:07:52;28.80;44.10
80176;DHT22;69501;42.124;24.722;2023-07-24T06:10:17;28.80;43.70
80176;DHT22;69501;42.124;24.722;2023-07-24T06:12:43;28.80;43.70
80176;DHT22;69501;42.124;24.722;2023-07-24T06:15:09;28.80;43.80
80176;DHT22;69501;42.124;24.722;2023-07-24T06:17:35;28.90;43.90
80176;DHT22;69501;42.124;24.722;2023-07-24T06:20:00;28.80;43.50
80176;DHT22;69501;42.124;24.722;2023-07-24T06:22:26;28.80;43.20
80176;DHT22;69501;42.124;24.722;2023-07-24T06:24:52;28.90;42.70
80176;DHT22;69501;42.124;24.722;2023-07-24T06:27:17;28.90;42.30
80176;DHT22;69501;42.124;24.722;2023-07-24T06:29:43;29.00;42.20
80176;DHT22;69501;42.124;24.722;2023-07-24T06:32:09;29.00;42.10
80176;DHT22;69501;42.124;24.722;2023-07-24T06:34:34;29.10;42.10
80176;DHT22;69501;42.124;24.722;2023-07-24T06:37:00;29.10;41.80
80176;DHT22;69501;42.124;24.722;2023-07-24T06:39:26;29.10;40.30
80176;DHT22;69501;42.124;24.722;2023-07-24T06:41:54;29.20;39.20
80176;DHT22;69501;42.124;24.722;2023-07-24T06:44:19;29.20;38.50
80176;DHT22;69501;42.124;24.722;2023-07-24T06:46:45;29.30;38.40
80176;DHT22;69501;42.124;24.722;2023-07-24T06:49:11;29.40;38.10
80176;DHT22;69501;42.124;24.722;2023-07-24T06:51:37;29.40;37.60
80176;DHT22;69501;42.124;24.722;2023-07-24T06:54:06;29.40;37.50
80176;DHT22;69501;42.124;24.722;2023-07-24T06:56:32;29.50;37.50
80176;DHT22;69501;42.124;24.722;2023-07-24T06:58:58;29.50;37.20
80176;DHT22;69501;42.124;24.722;2023-07-24T07:01:24;29.50;36.90
80176;DHT22;69501;42.124;24.722;2023-07-24T07:04:04;29.60;36.60
80176;DHT22;69501;42.124;24.722;2023-07-24T07:06:29;29.60;36.60
80176;DHT22;69501;42.124;24.722;2023-07-24T07:08:55;29.70;36.70
80176;DHT22;69501;42.124;24.722;2023-07-24T07:11:21;29.70;36.60
80176;DHT22;69501;42.124;24.722;2023-07-24T07:13:46;29.70;36.60
80176;DHT22;69501;42.124;24.722;2023-07-24T07:16:12;29.90;36.20
80176;DHT22;69501;42.124;24.722;2023-07-24T07:18:38;29.90;35.60
80176;DHT22;69501;42.124;24.722;2023-07-24T07:21:03;30.00;35.10
80176;DHT22;69501;42.124;24.722;2023-07-24T07:23:29;30.10;34.90
80176;DHT22;69501;42.124;24.722;2023-07-24T07:25:55;30.10;34.30
80176;DHT22;69501;42.124;24.722;2023-07-24T07:28:21;30.20;34.50
80176;DHT22;69501;42.124;24.722;2023-07-24T07:30:46;30.20;34.40
80176;DHT22;69501;42.124;24.722;2023-07-24T07:33:12;30.30;34.10
80176;DHT22;69501;42.124;24.722;2023-07-24T07:35:38;30.20;34.00
80176;DHT22;69501;42.124;24.722;2023-07-24T07:38:03;30.20;34.00
80176;DHT22;69501;42.124;24.722;2023-07-24T07:40:29;30.30;34.00
80176;DHT22;69501;42.124;24.722;2023-07-24T07:42:56;30.30;34.10
80176;DHT22;69501;42.124;24.722;2023-07-24T07:45:23;30.30;34.10
80176;DHT22;69501;42.124;24.722;2023-07-24T07:47:49;30.40;34.20
80176;DHT22;69501;42.124;24.722;2023-07-24T07:50:15;30.50;34.10
80176;DHT22;69501;42.124;24.722;2023-07-24T07:52:40;30.50;34.00
80176;DHT22;69501;42.124;24.722;2023-07-24T07:55:07;30.60;33.80
80176;DHT22;69501;42.124;24.722;2023-07-24T07:57:36;30.60;34.00
80176;DHT22;69501;42.124;24.722;2023-07-24T08:00:03;30.60;35.40
80176;DHT22;69501;42.124;24.722;2023-07-24T08:02:28;30.70;34.40
80176;DHT22;69501;42.124;24.722;2023-07-24T08:04:54;30.70;34.40
80176;DHT22;69501;42.124;24.722;2023-07-24T08:07:20;30.80;34.40
80176;DHT22;69501;42.124;24.722;2023-07-24T08:09:46;30.80;34.30
80176;DHT22;69501;42.124;24.722;2023-07-24T08:12:11;30.90;34.00
80176;DHT22;69501;42.124;24.722;2023-07-24T08:14:37;30.90;33.80
80176;DHT22;69501;42.124;24.722;2023-07-24T08:17:03;30.90;33.50
80176;DHT22;69501;42.124;24.722;2023-07-24T08:19:29;30.90;33.50
80176;DHT22;69501;42.124;24.722;2023-07-24T08:21:55;30.90;34.00
80176;DHT22;69501;42.124;24.722;2023-07-24T08:24:20;31.00;34.10
80176;DHT22;69501;42.124;24.722;2023-07-24T08:26:46;31.00;34.00
80176;DHT22;69501;42.124;24.722;2023-07-24T08:29:12;31.10;33.90
80176;DHT22;69501;42.124;24.722;2023-07-24T08:31:38;31.10;33.70
80176;DHT22;69501;42.124;24.722;2023-07-24T08:34:03;31.20;33.60
80176;DHT22;69501;42.124;24.722;2023-07-24T08:36:29;31.20;33.50
80176;DHT22;69501;42.124;24.722;2023-07-24T08:38:55;31.30;33.60
80176;DHT22;69501;42.124;24.722;2023-07-24T08:41:20;31.40;33.50
80176;DHT22;69501;42.124;24.722;2023-07-24T08:43:46;31.40;33.40
80176;DHT22;69501;42.124;24.722;2023-07-24T08:46:12;31.50;33.40
80176;DHT22;69501;42.124;24.722;2023-07-24T08:48:41;31.50;33.30
80176;DHT22;69501;42.124;24.722;2023-07-24T08:51:09;31.60;33.00
80176;DHT22;69501;42.124;24.722;2023-07-24T08:53:36;31.60;32.50
80176;DHT22;69501;42.124;24.722;2023-07-24T08:56:03;31.70;32.30
80176;DHT22;69501;42.124;24.722;2023-07-24T08:58:29;31.70;31.90
80176;DHT22;69501;42.124;24.722;2023-07-24T09:00:59;31.80;31.90
80176;DHT22;69501;42.124;24.722;2023-07-24T09:03:25;31.90;32.10
80176;DHT22;69501;42.124;24.722;2023-07-24T09:05:51;31.90;32.10
80176;DHT22;69501;42.124;24.722;2023-07-24T09:08:17;32.00;32.50
80176;DHT22;69501;42.124;24.722;2023-07-24T09:10:42;32.10;32.60
80176;DHT22;69501;42.124;24.722;2023-07-24T09:13:11;32.20;32.50
80176;DHT22;69501;42.124;24.722;2023-07-24T09:15:43;32.20;32.40
80176;DHT22;69501;42.124;24.722;2023-07-24T09:18:09;32.30;32.00
80176;DHT22;69501;42.124;24.722;2023-07-24T09:20:42;32.40;31.70
80176;DHT22;69501;42.124;24.722;2023-07-24T09:23:09;32.40;31.60
80176;DHT22;69501;42.124;24.722;2023-07-24T09:25:37;32.50;31.30
80176;DHT22;69501;42.124;24.722;2023-07-24T09:28:12;32.50;31.00
80176;DHT22;69501;42.124;24.722;2023-07-24T09:30:39;32.60;30.70
80176;DHT22;69501;42.124;24.722;2023-07-24T09:33:05;32.70;30.30
80176;DHT22;69501;42.124;24.722;2023-07-24T09:35:31;32.70;30.00
80176;DHT22;69501;42.124;24.722;2023-07-24T09:38:11;32.80;29.90
80176;DHT22;69501;42.124;24.722;2023-07-24T09:40:44;32.80;29.60
80176;DHT22;69501;42.124;24.722;2023-07-24T09:43:27;32.90;29.50
80176;DHT22;69501;42.124;24.722;2023-07-24T09:45:53;32.90;29.70
80176;DHT22;69501;42.124;24.722;2023-07-24T09:48:21;33.00;29.50
80176;DHT22;69501;42.124;24.722;2023-07-24T09:50:49;33.00;29.30
80176;DHT22;69501;42.124;24.722;2023-07-24T09:55:54;33.10;28.40
80176;DHT22;69501;42.124;24.722;2023-07-24T09:58:21;33.10;28.30
80176;DHT22;69501;42.124;24.722;2023-07-24T10:00:48;33.20;28.20
80176;DHT22;69501;42.124;24.722;2023-07-24T10:03:14;33.30;28.60
80176;DHT22;69501;42.124;24.722;2023-07-24T10:05:42;33.40;28.50
80176;DHT22;69501;42.124;24.722;2023-07-24T10:08:16;33.40;28.20
80176;DHT22;69501;42.124;24.722;2023-07-24T10:10:42;33.50;28.00
80176;DHT22;69501;42.124;24.722;2023-07-24T10:13:09;33.60;27.80
80176;DHT22;69501;42.124;24.722;2023-07-24T10:15:37;33.70;27.80
80176;DHT22;69501;42.124;24.722;2023-07-24T10:18:06;33.70;28.70
80176;DHT22;69501;42.124;24.722;2023-07-24T10:20:39;33.80;27.70
80176;DHT22;69501;42.124;24.722;2023-07-24T10:23:10;34.00;27.50
80176;DHT22;69501;42.124;24.722;2023-07-24T10:25:38;34.10;27.20
80176;DHT22;69501;42.124;24.722;2023-07-24T10:28:10;34.20;27.00
80176;DHT22;69501;42.124;24.722;2023-07-24T10:30:38;34.30;27.10
80176;DHT22;69501;42.124;24.722;2023-07-24T10:33:13;34.40;27.10
80176;DHT22;69501;42.124;24.722;2023-07-24T10:35:40;34.50;26.50
80176;DHT22;69501;42.124;24.722;2023-07-24T10:38:06;34.60;25.90
80176;DHT22;69501;42.124;24.722;2023-07-24T10:40:33;34.70;25.50
80176;DHT22;69501;42.124;24.722;2023-07-24T10:45:25;34.90;25.00
80176;DHT22;69501;42.124;24.722;2023-07-24T10:47:51;35.00;24.70
80176;DHT22;69501;42.124;24.722;2023-07-24T10:50:19;35.00;23.90
80176;DHT22;69501;42.124;24.722;2023-07-24T10:52:44;35.10;23.60
80176;DHT22;69501;42.124;24.722;2023-07-24T10:55:10;35.30;23.50
80176;DHT22;69501;42.124;24.722;2023-07-24T10:57:36;35.30;23.00
80176;DHT22;69501;42.124;24.722;2023-07-24T11:00:01;35.50;21.90
80176;DHT22;69501;42.124;24.722;2023-07-24T11:02:27;35.60;21.40
80176;DHT22;69501;42.124;24.722;2023-07-24T11:04:54;35.70;21.40
80176;DHT22;69501;42.124;24.722;2023-07-24T11:07:20;35.80;21.70
80176;DHT22;69501;42.124;24.722;2023-07-24T11:09:46;35.90;22.10
80176;DHT22;69501;42.124;24.722;2023-07-24T11:12:16;36.00;22.50
80176;DHT22;69501;42.124;24.722;2023-07-24T11:14:49;36.20;23.20
80176;DHT22;69501;42.124;24.722;2023-07-24T11:17:15;36.30;23.30
80176;DHT22;69501;42.124;24.722;2023-07-24T11:19:40;36.40;22.70
80176;DHT22;69501;42.124;24.722;2023-07-24T11:22:07;36.60;22.60
80176;DHT22;69501;42.124;24.722;2023-07-24T11:24:33;36.70;21.80
80176;DHT22;69501;42.124;24.722;2023-07-24T11:26:58;36.80;21.20
80176;DHT22;69501;42.124;24.722;2023-07-24T11:29:24;36.90;21.00
80176;DHT22;69501;42.124;24.722;2023-07-24T11:31:56;37.00;20.80
80176;DHT22;69501;42.124;24.722;2023-07-24T11:34:24;37.20;20.70
80176;DHT22;69501;42.124;24.722;2023-07-24T11:36:50;37.30;20.40
80176;DHT22;69501;42.124;24.722;2023-07-24T11:39:25;37.50;20.60
80176;DHT22;69501;42.124;24.722;2023-07-24T11:41:51;37.60;20.70
80176;DHT22;69501;42.124;24.722;2023-07-24T11:44:24;37.70;20.40
80176;DHT22;69501;42.124;24.722;2023-07-24T11:46:50;37.70;20.10
80176;DHT22;69501;42.124;24.722;2023-07-24T11:49:19;37.70;19.90
80176;DHT22;69501;42.124;24.722;2023-07-24T11:51:48;37.80;19.50
80176;DHT22;69501;42.124;24.722;2023-07-24T11:54:17;37.90;19.30
80176;DHT22;69501;42.124;24.722;2023-07-24T11:56:46;38.10;19.30
80176;DHT22;69501;42.124;24.722;2023-07-24T11:59:14;38.30;19.50
80176;DHT22;69501;42.124;24.722;2023-07-24T12:01:45;38.50;19.50
80176;DHT22;69501;42.124;24.722;2023-07-24T12:04:11;38.60;20.40
80176;DHT22;69501;42.124;24.722;2023-07-24T12:06:38;38.80;19.10
80176;DHT22;69501;42.124;24.722;2023-07-24T12:09:04;39.00;18.50
80176;DHT22;69501;42.124;24.722;2023-07-24T12:11:31;39.10;17.60
80176;DHT22;69501;42.124;24.722;2023-07-24T12:13:57;39.40;17.10
80176;DHT22;69501;42.124;24.722;2023-07-24T12:16:23;39.60;16.50
80176;DHT22;69501;42.124;24.722;2023-07-24T12:18:48;39.70;15.80
80176;DHT22;69501;42.124;24.722;2023-07-24T12:21:14;39.90;15.20
80176;DHT22;69501;42.124;24.722;2023-07-24T12:23:40;40.00;15.00
80176;DHT22;69501;42.124;24.722;2023-07-24T12:26:05;40.20;15.00
80176;DHT22;69501;42.124;24.722;2023-07-24T12:28:31;40.30;14.70
80176;DHT22;69501;42.124;24.722;2023-07-24T12:30:57;40.50;14.40
80176;DHT22;69501;42.124;24.722;2023-07-24T12:33:22;40.70;14.30
80176;DHT22;69501;42.124;24.722;2023-07-24T12:35:52;40.80;14.20
80176;DHT22;69501;42.124;24.722;2023-07-24T12:38:20;41.00;14.10
80176;DHT22;69501;42.124;24.722;2023-07-24T12:40:46;41.20;14.10
80176;DHT22;69501;42.124;24.722;2023-07-24T12:43:11;41.30;14.20
80176;DHT22;69501;42.124;24.722;2023-07-24T12:45:37;41.50;14.40
80176;DHT22;69501;42.124;24.722;2023-07-24T12:48:03;41.60;14.40
80176;DHT22;69501;42.124;24.722;2023-07-24T12:50:29;41.70;14.20
80176;DHT22;69501;42.124;24.722;2023-07-24T12:52:56;41.70;13.70
80176;DHT22;69501;42.124;24.722;2023-07-24T12:55:21;41.80;13.80
80176;DHT22;69501;42.124;24.722;2023-07-24T12:57:47;41.90;13.70
80176;DHT22;69501;42.124;24.722;2023-07-24T13:00:13;41.90;13.70
80176;DHT22;69501;42.124;24.722;2023-07-24T13:02:38;41.90;13.70
80176;DHT22;69501;42.124;24.722;2023-07-24T13:05:04;42.00;13.80
80176;DHT22;69501;42.124;24.722;2023-07-24T13:07:30;42.00;13.80
80176;DHT22;69501;42.124;24.722;2023-07-24T13:09:55;42.00;13.60
80176;DHT22;69501;42.124;24.722;2023-07-24T13:12:21;42.10;13.30
80176;DHT22;69501;42.124;24.722;2023-07-24T13:14:47;42.20;13.90
80176;DHT22;69501;42.124;24.722;2023-07-24T13:17:15;42.20;14.20
80176;DHT22;69501;42.124;24.722;2023-07-24T13:19:41;42.30;13.60
80176;DHT22;69501;42.124;24.722;2023-07-24T13:22:07;42.30;13.10
80176;DHT22;69501;42.124;24.722;2023-07-24T13:24:32;42.30;13.00
80176;DHT22;69501;42.124;24.722;2023-07-24T13:26:58;42.30;12.90
80176;DHT22;69501;42.124;24.722;2023-07-24T13:29:24;42.30;13.00
80176;DHT22;69501;42.124;24.722;2023-07-24T13:31:50;42.30;12.60
80176;DHT22;69501;42.124;24.722;2023-07-24T13:34:17;42.30;12.60
80176;DHT22;69501;42.124;24.722;2023-07-24T13:36:45;42.30;12.50
80176;DHT22;69501;42.124;24.722;2023-07-24T13:39:12;42.30;12.40
80176;DHT22;69501;42.124;24.722;2023-07-24T13:41:38;42.30;12.20
80176;DHT22;69501;42.124;24.722;2023-07-24T13:44:04;42.20;12.10
80176;DHT22;69501;42.124;24.722;2023-07-24T13:46:30;42.20;12.20
80176;DHT22;69501;42.124;24.722;2023-07-24T13:48:55;42.10;12.00
80176;DHT22;69501;42.124;24.722;2023-07-24T13:51:21;42.20;12.20
80176;DHT22;69501;42.124;24.722;2023-07-24T13:53:47;42.10;12.10
80176;DHT22;69501;42.124;24.722;2023-07-24T13:56:14;42.20;12.40
80176;DHT22;69501;42.124;24.722;2023-07-24T13:58:40;42.30;12.30
80176;DHT22;69501;42.124;24.722;2023-07-24T14:01:06;42.30;12.20
80176;DHT22;69501;42.124;24.722;2023-07-24T14:03:35;42.30;12.00
80176;DHT22;69501;42.124;24.722;2023-07-24T14:06:01;42.40;11.80
80176;DHT22;69501;42.124;24.722;2023-07-24T14:08:27;42.40;11.60
80176;DHT22;69501;42.124;24.722;2023-07-24T14:10:52;42.40;11.30
80176;DHT22;69501;42.124;24.722;2023-07-24T14:13:18;42.50;11.20
80176;DHT22;69501;42.124;24.722;2023-07-24T14:15:44;42.50;11.30
80176;DHT22;69501;42.124;24.722;2023-07-24T14:18:09;42.60;11.40
80176;DHT22;69501;42.124;24.722;2023-07-24T14:20:35;42.60;11.50
80176;DHT22;69501;42.124;24.722;2023-07-24T14:23:02;42.50;11.70
80176;DHT22;69501;42.124;24.722;2023-07-24T14:25:28;42.60;12.00
80176;DHT22;69501;42.124;24.722;2023-07-24T14:27:53;42.60;11.80
80176;DHT22;69501;42.124;24.722;2023-07-24T14:30:20;42.70;11.90
80176;DHT22;69501;42.124;24.722;2023-07-24T14:32:45;42.80;12.10
80176;DHT22;69501;42.124;24.722;2023-07-24T14:35:11;42.70;12.00
80176;DHT22;69501;42.124;24.722;2023-07-24T14:37:37;42.80;11.80
80176;DHT22;69501;42.124;24.722;2023-07-24T14:40:02;42.80;11.60
80176;DHT22;69501;42.124;24.722;2023-07-24T14:42:29;42.80;11.60
80176;DHT22;69501;42.124;24.722;2023-07-24T14:44:54;42.80;11.40
80176;DHT22;69501;42.124;24.722;2023-07-24T14:47:20;42.90;11.30
80176;DHT22;69501;42.124;24.722;2023-07-24T14:49:46;42.90;11.30
80176;DHT22;69501;42.124;24.722;2023-07-24T14:52:11;42.90;11.30
80176;DHT22;69501;42.124;24.722;2023-07-24T14:54:37;42.90;11.30
80176;DHT22;69501;42.124;24.722;2023-07-24T14:57:03;43.00;11.40
80176;DHT22;69501;42.124;24.722;2023-07-24T14:59:29;43.00;11.50
80176;DHT22;69501;42.124;24.722;2023-07-24T15:01:54;43.00;11.40
80176;DHT22;69501;42.124;24.722;2023-07-24T15:04:20;43.00;11.30
80176;DHT22;69501;42.124;24.722;2023-07-24T15:06:46;43.00;11.30
80176;DHT22;69501;42.124;24.722;2023-07-24T15:09:11;43.00;11.20
80176;DHT22;69501;42.124;24.722;2023-07-24T15:11:37;43.00;11.10
80176;DHT22;69501;42.124;24.722;2023-07-24T15:14:03;43.00;11.10
80176;DHT22;69501;42.124;24.722;2023-07-24T15:16:28;43.00;11.20
80176;DHT22;69501;42.124;24.722;2023-07-24T15:18:54;43.00;11.10
80176;DHT22;69501;42.124;24.722;2023-07-24T15:21:19;42.90;11.10
80176;DHT22;69501;42.124;24.722;2023-07-24T15:23:45;42.90;11.20